Adelaide, California
Current Conditions -  °F | °C
As of 12:53 AM on Thursday 18 Dec 2014 (Local Time) from KPRB Reporting Station
Overcast Overcast  
Wind Chill: 49°   Ceiling: 3700
Heat Index: 49°   Visibility: 10mi
Dew Point: 45°   Wind: 0mph
Humidity: 86%   Direction: NA
Pressure: 30.11"   Gusts: NA
Location:  35.6618°N, 120.707°W
Report Text: KPRB 180853Z AUTO 00000KT 10SM BKN037 OVC045 09/07 A3011 RMK AO2 RAE35 SLP197 P0000 60002 T00940072 58003 TSNO
Loading
Personal Weather Stations






























Interactive Weather Map New forecast layout! Learn more

10-Day Weather Forecast

Advertisements
Track Severe Weather on mobile